Time;durP1;ratioP1;P1;durP2;ratioP2;P2;SDS_P1;SDS_P2;PMS_P1;PMS_P2;Temp;Humidity;BMP_temperature;BMP_pressure;BME280_temperature;BME280_humidity;BME280_pressure;Samples;Min_cycle;Max_cycle;Signal;HPM_P1;HPM_P2
2020/12/01 00:00:13;;;;;;;;;;;;;;;19.74;37.62;101507.59;5138671;27;901;-61
2020/12/01 00:02:38;;;;;;;;;;;;;;;20.59;35.89;101506.84;5133334;27;1918;-63
2020/12/01 00:05:04;;;;;;;;;;;;;;;20.34;36.30;101500.31;5118467;28;894;-62
2020/12/01 00:07:29;;;;;;;;;;;;;;;20.08;36.58;101496.81;5118431;27;767;-61
2020/12/01 00:09:54;;;;;;;;;;;;;;;19.89;37.11;101492.97;5101560;28;816;-60
2020/12/01 00:12:20;;;;;;;;;;;;;;;20.13;36.66;101488.53;5119560;28;758;-60
2020/12/01 00:14:45;;;;;;;;;;;;;;;20.92;35.24;101495.41;5118812;28;882;-61
2020/12/01 00:17:11;;;;;;;;;;;;;;;20.31;36.17;101505.56;5119149;27;1007;-61
2020/12/01 00:19:36;;;;;;;;;;;;;;;20.18;36.40;101499.53;5119499;28;858;-61
2020/12/01 00:22:02;;;;;;;;;;;;;;;19.48;37.95;101505.66;5119078;28;794;-61
2020/12/01 00:24:27;;;;;;;;;;;;;;;20.36;36.24;101489.00;5119198;28;1986;-61
2020/12/01 00:26:52;;;;;;;;;;;;;;;20.45;35.96;101473.47;5119338;28;743;-60
2020/12/01 00:29:18;;;;;;;;;;;;;;;20.20;36.35;101470.81;5118971;28;937;-61
2020/12/01 00:31:43;;;;;;;;;;;;;;;19.87;36.94;101475.88;5117896;28;1368;-63
2020/12/01 00:34:09;;;;;;;;;;;;;;;19.95;36.89;101494.63;5130265;27;996;-61
2020/12/01 00:36:35;;;;;;;;;;;;;;;20.65;35.39;101496.59;5139460;27;839;-60
2020/12/01 00:39:00;;;;;;;;;;;;;;;20.00;36.72;101491.84;5139612;27;814;-62
2020/12/01 00:41:26;;;;;;;;;;;;;;;20.21;36.46;101497.34;5139448;27;739;-60
2020/12/01 00:43:53;;;;;;;;;;;;;;;19.53;37.77;101492.97;5139246;27;1990;-61
2020/12/01 00:46:19;;;;;;;;;;;;;;;20.43;36.07;101480.41;5138217;27;810;-62
2020/12/01 00:48:45;;;;;;;;;;;;;;;20.61;35.57;101487.25;5122883;27;960;-63
2020/12/01 00:51:13;;;;;;;;;;;;;;;20.38;35.84;101483.19;5118812;28;770;-61
2020/12/01 00:53:39;;;;;;;;;;;;;;;19.90;36.95;101475.31;5117992;27;1207;-61
2020/12/01 00:56:05;;;;;;;;;;;;;;;19.77;37.19;101480.28;5118429;28;842;-60
2020/12/01 00:58:31;;;;;;;;;;;;;;;20.57;35.45;101472.34;5117721;27;1108;-60
2020/12/01 01:01:09;;;;;;;;;;;;;;;20.42;35.76;101476.81;5117606;27;1267;-61
2020/12/01 01:03:35;;;;;;;;;;;;;;;20.18;36.13;101491.25;5100315;28;1917;-59
2020/12/01 01:06:00;;;;;;;;;;;;;;;19.82;36.81;101499.63;5118390;28;815;-60
2020/12/01 01:08:25;;;;;;;;;;;;;;;20.05;36.79;101497.38;5118362;28;822;-60
2020/12/01 01:10:53;;;;;;;;;;;;;;;20.77;35.15;101488.81;5118233;28;803;-61
2020/12/01 01:13:18;;;;;;;;;;;;;;;20.31;36.09;101497.28;5117135;28;793;-61
2020/12/01 01:15:44;;;;;;;;;;;;;;;20.25;36.12;101473.56;5118123;28;873;-61
2020/12/01 01:18:09;;;;;;;;;;;;;;;19.75;37.12;101478.91;5118113;27;961;-61
2020/12/01 01:20:35;;;;;;;;;;;;;;;20.54;35.84;101490.31;5118225;28;747;-61
2020/12/01 01:23:00;;;;;;;;;;;;;;;20.58;35.31;101498.84;5117960;28;1917;-61
2020/12/01 01:25:25;;;;;;;;;;;;;;;20.14;36.18;101484.63;5117899;28;735;-61
2020/12/01 01:27:51;;;;;;;;;;;;;;;19.79;37.00;101478.09;5117407;28;1040;-61
2020/12/01 01:30:20;;;;;;;;;;;;;;;19.80;37.02;101465.94;5099694;28;794;-62
2020/12/01 01:32:46;;;;;;;;;;;;;;;20.62;35.49;101469.53;5117596;27;996;-61
2020/12/01 01:35:11;;;;;;;;;;;;;;;20.42;35.75;101460.22;5117847;28;807;-61
2020/12/01 01:37:37;;;;;;;;;;;;;;;20.28;35.91;101448.16;5099139;28;951;-61
2020/12/01 01:40:03;;;;;;;;;;;;;;;19.89;36.72;101448.81;5117820;28;731;-61
2020/12/01 01:42:28;;;;;;;;;;;;;;;20.24;36.32;101442.34;5117667;28;1917;-61
2020/12/01 01:44:53;;;;;;;;;;;;;;;21.00;34.58;101437.56;5116216;28;803;-61
2020/12/01 01:47:20;;;;;;;;;;;;;;;20.43;35.68;101445.31;5117783;27;988;-61
2020/12/01 01:49:46;;;;;;;;;;;;;;;20.34;35.99;101428.50;5116469;28;747;-61
2020/12/01 01:52:12;;;;;;;;;;;;;;;19.71;37.23;101445.50;5116234;28;802;-61
2020/12/01 01:54:38;;;;;;;;;;;;;;;20.54;35.37;101448.88;5117528;28;845;-61
2020/12/01 01:57:03;;;;;;;;;;;;;;;20.54;35.41;101439.72;5117586;28;842;-61
2020/12/01 01:59:29;;;;;;;;;;;;;;;20.22;35.99;101432.72;5116271;28;1302;-60
2020/12/01 02:01:55;;;;;;;;;;;;;;;19.78;36.77;101436.94;5115669;27;981;-60
2020/12/01 02:04:20;;;;;;;;;;;;;;;19.88;36.80;101444.41;5117222;28;1913;-60
2020/12/01 02:06:46;;;;;;;;;;;;;;;20.67;35.27;101461.22;5117158;28;743;-60
2020/12/01 02:09:13;;;;;;;;;;;;;;;20.27;36.16;101440.97;5116498;28;751;-60
2020/12/01 02:11:40;;;;;;;;;;;;;;;20.17;36.09;101444.59;5117115;28;783;-60
2020/12/01 02:14:14;;;;;;;;;;;;;;;19.51;37.23;101440.03;5115861;28;831;-61
2020/12/01 02:16:47;;;;;;;;;;;;;;;20.32;35.83;101461.09;5116040;28;759;-61
2020/12/01 02:19:14;;;;;;;;;;;;;;;20.54;35.52;101450.78;5117033;27;1004;-61
2020/12/01 02:21:41;;;;;;;;;;;;;;;20.22;35.87;101454.81;5117345;28;798;-60
2020/12/01 02:24:08;;;;;;;;;;;;;;;19.81;36.62;101456.56;5115639;28;1909;-61
2020/12/01 02:26:34;;;;;;;;;;;;;;;20.10;36.24;101442.13;5116927;28;771;-61
2020/12/01 02:29:07;;;;;;;;;;;;;;;20.75;35.22;101468.94;5115837;27;802;-61
2020/12/01 02:31:33;;;;;;;;;;;;;;;20.20;36.14;101445.97;5116903;28;810;-61
2020/12/01 02:33:58;;;;;;;;;;;;;;;20.26;35.90;101455.88;5126726;27;953;-62
2020/12/01 02:36:24;;;;;;;;;;;;;;;19.35;37.96;101458.50;5137468;27;806;-61
2020/12/01 02:38:49;;;;;;;;;;;;;;;20.33;35.82;101440.66;5137164;27;865;-61
2020/12/01 02:41:14;;;;;;;;;;;;;;;20.43;35.43;101444.50;5137236;27;806;-61
2020/12/01 02:43:40;;;;;;;;;;;;;;;20.25;35.82;101449.53;5137392;27;1913;-61
2020/12/01 02:46:05;;;;;;;;;;;;;;;19.75;36.59;101443.84;5137660;27;763;-61
2020/12/01 02:48:31;;;;;;;;;;;;;;;20.06;36.26;101454.03;5122798;27;940;-61
2020/12/01 02:50:56;;;;;;;;;;;;;;;20.75;34.91;101433.03;5116802;28;790;-61
2020/12/01 02:53:22;;;;;;;;;;;;;;;20.24;35.90;101436.00;5116783;28;764;-61
2020/12/01 02:55:47;;;;;;;;;;;;;;;20.00;36.13;101442.16;5116673;28;755;-61
2020/12/01 02:58:13;;;;;;;;;;;;;;;19.86;36.73;101446.63;5098656;28;1054;-62
2020/12/01 03:00:38;;;;;;;;;;;;;;;20.59;35.41;101453.53;5116575;28;802;-62
2020/12/01 03:03:04;;;;;;;;;;;;;;;20.24;35.73;101445.09;5116182;27;2049;-62
2020/12/01 03:05:29;;;;;;;;;;;;;;;20.20;35.74;101448.72;5116861;28;759;-62
2020/12/01 03:07:55;;;;;;;;;;;;;;;19.68;36.80;101437.78;5116838;28;763;-62
2020/12/01 03:10:20;;;;;;;;;;;;;;;20.12;36.17;101441.88;5116517;28;751;-61
2020/12/01 03:12:45;;;;;;;;;;;;;;;20.82;34.93;101441.00;5115451;28;775;-62
2020/12/01 03:15:13;;;;;;;;;;;;;;;20.36;35.68;101444.81;5116281;28;740;-62
2020/12/01 03:17:39;;;;;;;;;;;;;;;20.06;36.20;101454.84;5116244;27;1008;-62
2020/12/01 03:20:04;;;;;;;;;;;;;;;19.59;37.02;101465.13;5115506;27;1020;-62
2020/12/01 03:22:30;;;;;;;;;;;;;;;20.43;35.45;101461.91;5115207;28;1917;-62
2020/12/01 03:24:55;;;;;;;;;;;;;;;20.47;35.47;101474.03;5116404;28;771;-62
2020/12/01 03:27:21;;;;;;;;;;;;;;;20.15;35.83;101486.28;5115149;28;818;-62
2020/12/01 03:29:46;;;;;;;;;;;;;;;19.77;36.52;101482.22;5116162;28;764;-62
2020/12/01 03:32:11;;;;;;;;;;;;;;;19.71;37.06;101499.88;5116224;27;957;-61
2020/12/01 03:34:37;;;;;;;;;;;;;;;20.49;35.56;101484.78;5131890;28;1118;-62
2020/12/01 03:37:02;;;;;;;;;;;;;;;20.51;35.46;101482.59;5136738;27;916;-61
2020/12/01 03:39:28;;;;;;;;;;;;;;;20.13;36.00;101488.53;5136913;27;762;-62
2020/12/01 03:41:53;;;;;;;;;;;;;;;19.66;36.76;101498.78;5136931;27;830;-61
2020/12/01 03:44:19;;;;;;;;;;;;;;;19.67;36.95;101492.16;5136329;27;1905;-62
2020/12/01 03:46:44;;;;;;;;;;;;;;;20.50;35.40;101495.56;5136864;27;837;-61
2020/12/01 03:49:10;;;;;;;;;;;;;;;20.24;35.59;101496.75;5117215;27;1023;-61
2020/12/01 03:51:35;;;;;;;;;;;;;;;20.04;36.32;101492.13;5118901;28;786;-61
2020/12/01 03:54:01;;;;;;;;;;;;;;;19.48;37.09;101497.41;5120124;28;786;-61
2020/12/01 03:56:26;;;;;;;;;;;;;;;20.27;35.88;101504.47;5119970;28;818;-62
2020/12/01 03:58:51;;;;;;;;;;;;;;;20.42;35.50;101493.38;5119529;28;779;-61
2020/12/01 04:01:18;;;;;;;;;;;;;;;20.13;35.90;101493.19;5119885;28;774;-61
2020/12/01 04:03:43;;;;;;;;;;;;;;;19.95;36.12;101480.81;5133871;27;1906;-60
2020/12/01 04:06:08;;;;;;;;;;;;;;;19.54;37.24;101478.09;5139968;27;822;-60
2020/12/01 04:08:34;;;;;;;;;;;;;;;20.60;35.25;101497.44;5140274;27;1020;-61
2020/12/01 04:11:03;;;;;;;;;;;;;;;20.25;35.59;101493.72;5140102;27;830;-62
2020/12/01 04:13:29;;;;;;;;;;;;;;;20.15;35.87;101489.06;5138795;27;807;-60
2020/12/01 04:15:54;;;;;;;;;;;;;;;19.75;36.58;101484.41;5140054;27;762;-62
2020/12/01 04:18:20;;;;;;;;;;;;;;;20.35;35.52;101476.28;5127362;27;1015;-64
2020/12/01 04:20:45;;;;;;;;;;;;;;;20.94;34.50;101484.88;5118075;28;894;-65
2020/12/01 04:23:11;;;;;;;;;;;;;;;21.37;33.73;101485.13;5119504;28;1910;-60
2020/12/01 04:25:36;;;;;;;;;;;;;;;20.69;34.86;101475.59;5119385;28;803;-64
2020/12/01 04:28:05;;;;;;;;;;;;;;;20.38;35.39;101475.72;5119103;28;751;-66
2020/12/01 04:30:30;;;;;;;;;;;;;;;19.63;36.79;101466.22;5119535;28;767;-63
2020/12/01 04:32:56;;;;;;;;;;;;;;;19.97;36.14;101479.44;5120040;27;1131;-65
2020/12/01 04:35:21;;;;;;;;;;;;;;;20.83;34.37;101470.28;5139577;27;727;-63
2020/12/01 04:37:47;;;;;;;;;;;;;;;20.35;35.52;101468.00;5138116;27;898;-64
2020/12/01 04:40:17;;;;;;;;;;;;;;;20.09;35.77;101481.06;5139446;27;758;-62
2020/12/01 04:42:48;;;;;;;;;;;;;;;19.55;36.87;101465.97;5137807;27;1917;-61
2020/12/01 04:45:13;;;;;;;;;;;;;;;20.22;35.50;101452.06;5138275;27;782;-64
2020/12/01 04:47:48;;;;;;;;;;;;;;;20.66;34.83;101441.06;5130596;27;945;-60
2020/12/01 04:50:14;;;;;;;;;;;;;;;20.14;35.59;101445.16;5119159;28;850;-61
2020/12/01 04:53:09;;;;;;;;;;;;;;;19.75;36.28;101443.84;5118686;28;735;-61
2020/12/01 04:55:58;;;;;;;;;;;;;;;20.09;35.73;101468.09;5109233;28;1111;-63
2020/12/01 04:58:44;;;;;;;;;;;;;;;20.76;34.39;101476.13;5117513;28;866;-63
2020/12/01 05:01:14;;;;;;;;;;;;;;;20.19;35.48;101483.81;5116971;28;1256;-61
2020/12/01 05:03:46;;;;;;;;;;;;;;;19.94;35.94;101487.47;5118127;27;1918;-64
2020/12/01 05:09:03;;;;;;;;;;;;;;;20.82;34.29;101490.75;5118311;28;751;-63
2020/12/01 05:11:28;;;;;;;;;;;;;;;20.27;35.25;101487.91;5116843;28;963;-62
2020/12/01 05:14:23;;;;;;;;;;;;;;;20.09;35.79;101484.66;5118125;28;783;-64
2020/12/01 05:16:56;;;;;;;;;;;;;;;19.42;36.82;101478.34;5080636;28;1140;-59
2020/12/01 05:19:25;;;;;;;;;;;;;;;20.38;35.21;101486.75;5117293;28;783;-60
2020/12/01 05:21:50;;;;;;;;;;;;;;;20.44;35.02;101485.66;5118043;28;732;-61
2020/12/01 05:24:16;;;;;;;;;;;;;;;20.06;35.72;101487.97;5118102;28;1914;-61
2020/12/01 05:26:41;;;;;;;;;;;;;;;19.88;36.12;101472.84;5118176;28;739;-59
2020/12/01 05:29:07;;;;;;;;;;;;;;;19.98;35.83;101472.00;5117875;28;878;-61
2020/12/01 05:31:39;;;;;;;;;;;;;;;20.68;34.23;101490.53;5116694;28;1281;-60
2020/12/01 05:34:07;;;;;;;;;;;;;;;20.21;34.86;101486.28;5135173;27;997;-63
2020/12/01 05:36:33;;;;;;;;;;;;;;;20.15;35.03;101500.09;5136618;27;886;-60
2020/12/01 05:38:59;;;;;;;;;;;;;;;19.71;35.89;101500.69;5138572;27;758;-60
2020/12/01 05:41:27;;;;;;;;;;;;;;;20.00;35.44;101492.66;5138494;27;817;-61
2020/12/01 05:43:53;;;;;;;;;;;;;;;20.70;34.09;101507.66;5137707;27;1988;-62
2020/12/01 05:46:45;;;;;;;;;;;;;;;20.21;35.06;101500.09;5138349;27;794;-62
2020/12/01 05:49:30;;;;;;;;;;;;;;;19.99;35.48;101492.97;5115201;28;1039;-62
2020/12/01 05:52:03;;;;;;;;;;;;;;;19.93;35.92;101496.84;5116318;28;822;-62
2020/12/01 05:54:36;;;;;;;;;;;;;;;20.67;34.42;101510.97;5117521;28;791;-64
2020/12/01 05:57:01;;;;;;;;;;;;;;;20.17;35.33;101508.09;5116187;28;767;-62
2020/12/01 05:59:26;;;;;;;;;;;;;;;20.13;35.48;101502.31;5116253;28;771;-64
2020/12/01 06:02:02;;;;;;;;;;;;;;;19.80;35.99;101499.06;5117621;27;1004;-59
2020/12/01 06:04:27;;;;;;;;;;;;;;;20.65;34.47;101502.13;5117325;28;1921;-63
2020/12/01 06:06:53;;;;;;;;;;;;;;;20.37;34.72;101512.75;5117382;28;748;-61
2020/12/01 06:09:21;;;;;;;;;;;;;;;20.17;35.19;101522.75;5117316;28;736;-60
2020/12/01 06:11:47;;;;;;;;;;;;;;;19.59;36.27;101520.28;5116993;28;818;-64
2020/12/01 06:14:13;;;;;;;;;;;;;;;19.74;36.42;101519.47;5116641;28;810;-59
2020/12/01 06:16:45;;;;;;;;;;;;;;;20.63;34.42;101521.75;5117224;28;767;-58
2020/12/01 06:19:16;;;;;;;;;;;;;;;20.11;35.34;101521.09;5116744;27;941;-60
2020/12/01 06:22:02;;;;;;;;;;;;;;;20.14;35.31;101537.09;5115998;28;794;-60
2020/12/01 06:24:40;;;;;;;;;;;;;;;19.44;36.67;101542.34;5084554;28;1914;-61
2020/12/01 06:27:12;;;;;;;;;;;;;;;19.66;36.32;101531.06;5116936;28;764;-64
2020/12/01 06:29:57;;;;;;;;;;;;;;;20.59;34.53;101558.53;5115796;28;759;-64
2020/12/01 06:32:37;;;;;;;;;;;;;;;20.12;35.38;101550.38;5116814;27;953;-62
2020/12/01 06:35:10;;;;;;;;;;;;;;;19.85;35.70;101550.66;5134894;27;1111;-59
2020/12/01 06:37:51;;;;;;;;;;;;;;;19.37;36.95;101553.66;5136309;27;813;-60
2020/12/01 06:40:22;;;;;;;;;;;;;;;20.36;34.98;101555.28;5135289;27;858;-61
2020/12/01 06:42:52;;;;;;;;;;;;;;;20.20;35.19;101542.63;5135693;27;1980;-61
2020/12/01 06:45:17;;;;;;;;;;;;;;;20.22;35.18;101545.94;5137045;27;885;-62
2020/12/01 06:47:43;;;;;;;;;;;;;;;19.82;35.92;101553.97;5129625;27;929;-61
2020/12/01 06:50:10;;;;;;;;;;;;;;;20.20;35.27;101550.91;5115554;28;494;-59
2020/12/01 06:52:36;;;;;;;;;;;;;;;20.75;34.21;101557.38;5131968;27;1329;-67
2020/12/01 06:55:01;;;;;;;;;;;;;;;20.23;35.05;101555.84;5137222;27;770;-58
2020/12/01 06:57:33;;;;;;;;;;;;;;;20.11;35.69;101553.41;5137304;27;814;-66
2020/12/01 06:59:58;;;;;;;;;;;;;;;19.69;36.38;101558.09;5137131;27;810;-59
2020/12/01 07:02:31;;;;;;;;;;;;;;;20.23;35.40;101558.63;5132212;27;2273;-67
2020/12/01 07:05:09;;;;;;;;;;;;;;;20.65;34.29;101560.16;5116413;28;823;-61
2020/12/01 07:07:36;;;;;;;;;;;;;;;20.03;35.87;101553.97;5116427;28;755;-62
2020/12/01 07:10:12;;;;;;;;;;;;;;;19.96;35.95;101557.84;5116544;28;882;-65
2020/12/01 07:13:07;;;;;;;;;;;;;;;19.29;37.53;101552.28;5116471;28;791;-65
2020/12/01 07:15:46;;;;;;;;;;;;;;;20.12;35.69;101547.59;5061846;28;1133;-65
2020/12/01 07:18:22;;;;;;;;;;;;;;;20.44;35.18;101532.63;5116211;27;968;-63
2020/12/01 07:21:03;;;;;;;;;;;;;;;20.16;35.46;101540.41;5115432;28;952;-62
2020/12/01 07:23:36;;;;;;;;;;;;;;;19.73;36.79;101547.34;5116443;28;1972;-59
2020/12/01 07:26:15;;;;;;;;;;;;;;;19.35;37.36;101536.56;5117280;28;1283;-65
2020/12/01 07:29:02;;;;;;;;;;;;;;;19.88;36.47;101538.25;5118825;28;866;-60
2020/12/01 07:31:31;;;;;;;;;;;;;;;20.65;34.80;101546.31;5119189;28;783;-61
2020/12/01 07:33:58;;;;;;;;;;;;;;;20.27;35.42;101541.22;5136707;27;962;-64
2020/12/01 07:36:26;;;;;;;;;;;;;;;20.13;35.77;101543.75;5140760;27;729;-65
2020/12/01 07:39:01;;;;;;;;;;;;;;;19.20;37.74;101534.59;5140627;27;822;-65
2020/12/01 07:41:27;;;;;;;;;;;;;;;20.10;35.82;101530.47;5139757;27;731;-66
2020/12/01 07:43:58;;;;;;;;;;;;;;;20.62;34.84;101544.13;5140184;27;1914;-65
2020/12/01 07:46:24;;;;;;;;;;;;;;;20.20;35.39;101523.28;5140635;27;751;-64
2020/12/01 07:48:56;;;;;;;;;;;;;;;20.03;35.88;101524.41;5122216;27;989;-64
2020/12/01 07:51:21;;;;;;;;;;;;;;;19.40;37.17;101536.56;5120104;28;823;-63
2020/12/01 07:53:47;;;;;;;;;;;;;;;20.09;35.74;101541.81;5119772;28;799;-64
2020/12/01 07:56:13;;;;;;;;;;;;;;;20.58;34.95;101545.81;5120043;28;759;-64
2020/12/01 07:58:38;;;;;;;;;;;;;;;20.21;35.35;101552.56;5119599;28;747;-62
2020/12/01 08:01:05;;;;;;;;;;;;;;;19.98;35.95;101541.00;5119680;28;739;-56
2020/12/01 08:03:30;;;;;;;;;;;;;;;19.63;36.60;101549.00;5131830;27;1990;-63
2020/12/01 08:06:00;;;;;;;;;;;;;;;20.55;34.89;101546.38;5140426;27;763;-64
2020/12/01 08:08:25;;;;;;;;;;;;;;;20.29;34.98;101538.19;5140049;27;905;-63
2020/12/01 08:10:51;;;;;;;;;;;;;;;20.12;35.51;101546.78;5138735;27;1456;-64
2020/12/01 08:13:17;;;;;;;;;;;;;;;19.94;35.72;101553.72;5138857;27;624;-56
2020/12/01 08:15:44;;;;;;;;;;;;;;;19.47;36.80;101561.97;5138889;27;842;-64
2020/12/01 08:18:11;;;;;;;;;;;;;;;20.42;34.83;101559.69;5128433;27;952;-58
2020/12/01 08:20:37;;;;;;;;;;;;;;;20.28;35.22;101547.56;5118000;28;719;-64
2020/12/01 08:23:06;;;;;;;;;;;;;;;20.13;35.29;101563.06;5119515;28;1905;-63
2020/12/01 08:25:32;;;;;;;;;;;;;;;19.75;35.96;101543.19;5117772;28;832;-63
2020/12/01 08:28:20;;;;;;;;;;;;;;;20.15;35.58;101544.28;5119400;28;783;-64
2020/12/01 08:31:12;;;;;;;;;;;;;;;20.70;34.16;101553.81;5113273;28;1340;-65
2020/12/01 08:33:42;;;;;;;;;;;;;;;20.31;35.03;101542.31;5123637;27;1004;-61
2020/12/01 08:36:34;;;;;;;;;;;;;;;20.12;35.38;101547.59;5139049;27;843;-63
2020/12/01 08:39:07;;;;;;;;;;;;;;;19.37;36.78;101539.88;5106819;27;1276;-57
2020/12/01 08:41:44;;;;;;;;;;;;;;;20.00;35.56;101544.31;5117805;28;823;-63
2020/12/01 08:44:29;;;;;;;;;;;;;;;20.66;34.44;101539.69;5100614;28;1925;-63
2020/12/01 08:46:54;;;;;;;;;;;;;;;20.03;35.61;101532.69;5118451;27;988;-63
2020/12/01 08:49:52;;;;;;;;;;;;;;;20.02;35.54;101527.47;5117543;28;782;-62
2020/12/01 08:52:24;;;;;;;;;;;;;;;19.31;37.17;101543.72;5118360;28;1385;-63
2020/12/01 08:54:51;;;;;;;;;;;;;;;20.40;34.73;101528.75;5117344;28;921;-63
2020/12/01 08:57:19;;;;;;;;;;;;;;;20.25;34.97;101537.09;5118715;28;731;-56
2020/12/01 09:00:03;;;;;;;;;;;;;;;20.04;35.29;101531.59;5117218;28;859;-64
2020/12/01 09:02:35;;;;;;;;;;;;;;;19.67;36.03;101518.94;5118162;27;1913;-58
2020/12/01 09:05:00;;;;;;;;;;;;;;;20.18;35.11;101526.31;5118546;28;791;-63
2020/12/01 09:07:34;;;;;;;;;;;;;;;20.42;34.46;101515.47;5118362;28;850;-61
2020/12/01 09:10:24;;;;;;;;;;;;;;;20.15;35.31;101519.44;5118413;28;841;-63
2020/12/01 09:13:22;;;;;;;;;;;;;;;19.76;35.93;101520.00;5116881;28;834;-59
2020/12/01 09:23:56;;;;;;;;;;;;;;;19.97;35.35;101504.28;5118111;28;1909;-63
2020/12/01 09:26:21;;;;;;;;;;;;;;;19.55;36.35;101516.44;5117929;28;878;-63
2020/12/01 09:28:48;;;;;;;;;;;;;;;19.62;36.39;101507.88;5117894;28;787;-63
2020/12/01 09:31:13;;;;;;;;;;;;;;;20.48;34.64;101514.38;5117424;28;732;-63
2020/12/01 09:33:38;;;;;;;;;;;;;;;20.22;35.12;101499.00;5124633;27;960;-60
2020/12/01 09:36:04;;;;;;;;;;;;;;;20.04;35.25;101504.00;5138677;27;806;-63
2020/12/01 09:38:29;;;;;;;;;;;;;;;19.74;35.76;101494.63;5138622;27;806;-62
2020/12/01 09:40:55;;;;;;;;;;;;;;;19.58;36.16;101495.75;5138191;27;810;-63
2020/12/01 09:45:48;;;;;;;;;;;;;;;20.24;34.72;101483.78;5138150;27;838;-63
2020/12/01 09:50:41;;;;;;;;;;;;;;;19.70;35.80;101479.75;5138148;27;742;-63
2020/12/01 10:35:45;;;;;;;;;;;;;;;20.71;34.08;101373.09;5137278;27;752;-63
2020/12/01 10:38:10;;;;;;;;;;;;;;;20.31;34.88;101387.66;5137588;27;815;-62
2020/12/01 10:40:36;;;;;;;;;;;;;;;20.12;34.83;101384.69;5137391;27;739;-62
2020/12/01 10:43:01;;;;;;;;;;;;;;;19.48;36.13;101378.78;5136854;27;1913;-63
2020/12/01 10:45:27;;;;;;;;;;;;;;;20.42;34.78;101388.41;5137089;27;874;-63
2020/12/01 10:47:53;;;;;;;;;;;;;;;20.49;34.15;101388.91;5128435;27;968;-63
2020/12/01 10:50:19;;;;;;;;;;;;;;;20.26;34.68;101400.63;5116589;28;826;-62
2020/12/01 10:52:44;;;;;;;;;;;;;;;19.83;35.44;101404.66;5116549;28;743;-63
2020/12/01 10:55:14;;;;;;;;;;;;;;;19.39;36.58;101394.28;5116554;28;751;-59
2020/12/01 10:57:39;;;;;;;;;;;;;;;20.00;35.42;101409.03;5116537;28;903;-63
2020/12/01 11:00:08;;;;;;;;;;;;;;;20.78;33.66;101409.50;5119086;28;819;-64
2020/12/01 11:02:33;;;;;;;;;;;;;;;20.31;34.78;101408.91;5126245;27;1988;-59
2020/12/01 11:04:59;;;;;;;;;;;;;;;20.07;34.96;101404.03;5139851;27;830;-58
2020/12/01 11:07:24;;;;;;;;;;;;;;;19.42;36.13;101410.25;5140394;27;1226;-63
2020/12/01 11:09:49;;;;;;;;;;;;;;;20.30;34.65;101421.06;5141423;27;838;-54
2020/12/01 11:12:15;;;;;;;;;;;;;;;20.59;33.92;101403.78;5140822;27;877;-65
2020/12/01 11:14:40;;;;;;;;;;;;;;;20.16;34.75;101416.16;5141046;27;818;-65
2020/12/01 11:17:06;;;;;;;;;;;;;;;19.90;35.48;101414.59;5138866;27;960;-63
2020/12/01 11:19:31;;;;;;;;;;;;;;;19.52;36.26;101416.84;5120404;28;811;-57
2020/12/01 11:21:57;;;;;;;;;;;;;;;20.49;34.24;101422.06;5120882;28;775;-63
2020/12/01 11:24:22;;;;;;;;;;;;;;;20.45;34.30;101420.16;5120143;28;1910;-59
2020/12/01 11:26:48;;;;;;;;;;;;;;;20.42;34.22;101426.25;5120250;28;763;-64
2020/12/01 11:29:13;;;;;;;;;;;;;;;19.95;34.96;101418.19;5120479;28;799;-64
2020/12/01 11:31:41;;;;;;;;;;;;;;;19.82;35.53;101433.41;5120217;28;866;-58
2020/12/01 11:34:08;;;;;;;;;;;;;;;20.66;33.85;101418.13;5131262;27;953;-66
2020/12/01 11:36:33;;;;;;;;;;;;;;;20.31;34.53;101425.47;5140824;27;806;-61
2020/12/01 11:38:59;;;;;;;;;;;;;;;20.33;34.46;101423.28;5140826;27;750;-60
2020/12/01 11:41:25;;;;;;;;;;;;;;;19.68;35.74;101412.97;5140700;27;814;-63
2020/12/01 11:43:50;;;;;;;;;;;;;;;19.50;36.19;101408.84;5140453;27;1905;-61
2020/12/01 11:46:15;;;;;;;;;;;;;;;20.12;34.90;101411.50;5140447;27;767;-60
2020/12/01 11:48:41;;;;;;;;;;;;;;;20.65;33.94;101408.16;5124727;27;925;-62
2020/12/01 11:51:06;;;;;;;;;;;;;;;20.23;34.55;101407.59;5120003;28;884;-63
2020/12/01 11:53:32;;;;;;;;;;;;;;;20.16;35.00;101423.59;5119543;28;802;-64
2020/12/01 11:55:57;;;;;;;;;;;;;;;19.60;35.87;101405.25;5120153;28;866;-65
2020/12/01 11:58:23;;;;;;;;;;;;;;;20.33;34.45;101415.00;5119810;28;933;-64
2020/12/01 12:00:48;;;;;;;;;;;;;;;20.59;33.85;101398.25;5119538;28;751;-60
2020/12/01 12:03:13;;;;;;;;;;;;;;;20.09;34.85;101396.31;5119494;27;1976;-64
2020/12/01 12:05:39;;;;;;;;;;;;;;;19.85;35.46;101395.28;5119631;28;748;-63
2020/12/01 12:08:04;;;;;;;;;;;;;;;19.74;35.81;101394.47;5119468;28;798;-66
2020/12/01 12:10:30;;;;;;;;;;;;;;;20.52;34.27;101396.66;5119296;28;779;-60
2020/12/01 12:12:55;;;;;;;;;;;;;;;20.27;34.45;101380.22;5119096;28;802;-60
2020/12/01 12:15:21;;;;;;;;;;;;;;;20.14;34.83;101385.22;5118115;28;815;-60
2020/12/01 12:17:46;;;;;;;;;;;;;;;19.66;35.69;101393.09;5119260;27;949;-65
2020/12/01 12:20:12;;;;;;;;;;;;;;;19.85;35.46;101387.00;5119325;28;810;-65
2020/12/01 12:22:37;;;;;;;;;;;;;;;20.57;34.05;101394.97;5119126;28;1905;-61
2020/12/01 12:25:02;;;;;;;;;;;;;;;20.22;34.56;101394.06;5119175;28;795;-66
2020/12/01 12:27:29;;;;;;;;;;;;;;;20.12;34.73;101400.47;5119400;28;778;-60
2020/12/01 12:29:54;;;;;;;;;;;;;;;19.65;35.67;101396.97;5119142;28;779;-63
2020/12/01 12:32:19;;;;;;;;;;;;;;;20.00;35.29;101411.81;5118918;27;1008;-63
2020/12/01 12:34:45;;;;;;;;;;;;;;;20.73;33.72;101404.81;5135589;27;1086;-65
2020/12/01 12:37:10;;;;;;;;;;;;;;;20.35;34.53;101410.00;5139524;27;739;-64
2020/12/01 12:39:36;;;;;;;;;;;;;;;20.24;34.52;101419.44;5139664;27;763;-64
2020/12/01 12:42:02;;;;;;;;;;;;;;;19.56;36.11;101426.22;5139320;27;758;-63
2020/12/01 12:44:27;;;;;;;;;;;;;;;19.80;35.49;101420.97;5139271;27;1917;-64
2020/12/01 12:46:53;;;;;;;;;;;;;;;20.57;34.04;101417.91;5138971;27;937;-64
2020/12/01 12:49:18;;;;;;;;;;;;;;;20.40;34.41;101423.78;5118487;28;858;-65
2020/12/01 12:51:44;;;;;;;;;;;;;;;20.33;34.47;101426.84;5118896;28;866;-65
2020/12/01 12:54:09;;;;;;;;;;;;;;;19.80;35.43;101427.31;5118694;28;498;-58
2020/12/01 12:56:34;;;;;;;;;;;;;;;19.74;35.62;101417.38;5118889;28;814;-64
2020/12/01 12:59:00;;;;;;;;;;;;;;;20.49;34.11;101422.06;5118552;28;799;-58
2020/12/01 13:01:25;;;;;;;;;;;;;;;20.41;34.46;101425.44;5118611;27;774;-63
2020/12/01 13:03:51;;;;;;;;;;;;;;;20.22;34.50;101416.16;5118166;27;1934;-61
2020/12/01 13:06:16;;;;;;;;;;;;;;;19.88;35.49;101419.56;5118437;28;755;-62
2020/12/01 13:08:42;;;;;;;;;;;;;;;19.58;36.19;101418.50;5117502;28;793;-62
2020/12/01 13:11:07;;;;;;;;;;;;;;;20.35;34.42;101412.75;5118573;28;827;-63
2020/12/01 13:13:33;;;;;;;;;;;;;;;20.29;34.36;101417.47;5118217;28;490;-63
2020/12/01 13:15:58;;;;;;;;;;;;;;;20.19;34.70;101406.50;5118316;28;760;-60
2020/12/01 13:18:24;;;;;;;;;;;;;;;19.86;35.64;101405.22;5118193;27;961;-66
2020/12/01 13:20:49;;;;;;;;;;;;;;;19.74;35.56;101411.84;5117988;28;881;-61
2020/12/01 13:23:15;;;;;;;;;;;;;;;20.54;34.00;101395.53;5117902;28;1987;-61
2020/12/01 13:25:40;;;;;;;;;;;;;;;20.22;34.58;101405.09;5118554;28;755;-60
2020/12/01 13:28:05;;;;;;;;;;;;;;;20.14;34.76;101410.09;5118052;28;790;-59
2020/12/01 13:30:34;;;;;;;;;;;;;;;19.98;35.38;101403.00;5118061;28;775;-59
2020/12/01 13:33:00;;;;;;;;;;;;;;;19.89;35.27;101401.91;5119263;27;1008;-59
2020/12/01 13:35:25;;;;;;;;;;;;;;;20.68;34.04;101404.88;5136929;27;929;-66
2020/12/01 13:37:51;;;;;;;;;;;;;;;20.33;34.48;101410.28;5138485;27;771;-61
2020/12/01 13:40:17;;;;;;;;;;;;;;;20.06;35.13;101396.84;5138145;27;763;-61
2020/12/01 13:42:45;;;;;;;;;;;;;;;19.68;35.86;101407.44;5137413;27;1996;-60
2020/12/01 13:45:10;;;;;;;;;;;;;;;19.64;35.83;101406.34;5138683;27;794;-60
2020/12/01 13:47:36;;;;;;;;;;;;;;;20.52;34.34;101399.41;5131534;27;933;-61
2020/12/01 13:50:02;;;;;;;;;;;;;;;20.39;34.47;101400.03;5118017;28;779;-58
2020/12/01 13:52:27;;;;;;;;;;;;;;;20.07;35.20;101398.53;5117495;28;758;-59
2020/12/01 13:54:53;;;;;;;;;;;;;;;19.73;35.81;101399.16;5116511;27;854;-58
2020/12/01 13:57:18;;;;;;;;;;;;;;;19.75;35.89;101398.88;5117596;28;854;-62